Observation data for Reese Center on 06/16/2019      Previous  Date  Next       Current Mesonet Observations  Soil Data  Daily Summary Page  Observations in Plain Language
KREE 160500Z 06009KT 21/09 A2989 RMK A01 T02080094  RH  049%=      5-min Rain = 0
KREE 160505Z 36017G23KT 20/10 A2992 RMK A01 T02000098  RH  053%=      5-min Rain = 0
KREE 160510Z 03012G21KT 20/10 A299 RMK A01 T02000101  RH  053%=      5-min Rain = 0
KREE 160515Z 05012KT 20/10 A299 RMK A01 T02010100  RH  053%=      5-min Rain = 0
KREE 160520Z 36018G27KT 20/10 A2992 RMK A01 T01950104  RH  056%=      5-min Rain = 0
KREE 160525Z 36016G27KT 20/11 A2992 RMK A01 T01950105  RH  057%=      5-min Rain = 0
KREE 160530Z 03014KT 20/10 A2991 RMK A01 T01960104  RH  056%=      5-min Rain = 0
KREE 160535Z 02011KT 20/11 A2992 RMK A01 T01950105  RH  057%=      5-min Rain = 0
KREE 160540Z 03009KT 19/11 A2992 RMK A01 T01920105  RH  058%=      5-min Rain = 0
KREE 160545Z 05008KT 19/10 A2992 RMK A01 T01930103  RH  057%=      5-min Rain = 0
KREE 160550Z 06008KT 19/10 A2991 RMK A01 T01920102  RH  057%=      5-min Rain = 0
KREE 160555Z 04009KT 20/10 A2991 RMK A01 T01960101  RH  055%=      5-min Rain = 0
KREE 160600Z 05009KT 19/10 A2991 RMK A01 T01930101  RH  056%=      5-min Rain = 0
KREE 160605Z 07010KT 19/10 A2991 RMK A01 T01890101  RH  058%=      5-min Rain = 0
KREE 160610Z 07009KT 19/10 A2991 RMK A01 T01870102  RH  059%=      5-min Rain = 0
KREE 160615Z 03010KT 19/10 A2992 RMK A01 T01870103  RH  059%=      5-min Rain = 0
KREE 160620Z 04010KT 18/10 A2992 RMK A01 T01830104  RH  061%=      5-min Rain = 0
KREE 160625Z 03009KT 18/11 A2992 RMK A01 T01830105  RH  061%=      5-min Rain = 0
KREE 160630Z 01009KT 18/11 A2993 RMK A01 T01750105  RH  065%=      5-min Rain = 0
KREE 160635Z 01010KT 18/11 A2992 RMK A01 T01750106  RH  065%=      5-min Rain = 0
KREE 160640Z 01011KT 17/11 A2993 RMK A01 T01720106  RH  066%=      5-min Rain = 0
KREE 160645Z 02010KT 18/11 A2993 RMK A01 T01760107  RH  065%=      5-min Rain = 0
KREE 160650Z 02010KT 18/11 A2993 RMK A01 T01760108  RH  065%=      5-min Rain = 0
KREE 160655Z 03010KT 18/11 A2993 RMK A01 T01750109  RH  066%=      5-min Rain = 0
KREE 160700Z 04010KT 18/11 A2993 RMK A01 T01810108  RH  063%=      5-min Rain = 0
KREE 160705Z 03009KT 18/11 A2993 RMK A01 T01810108  RH  063%=      5-min Rain = 0
KREE 160710Z 04010KT 18/11 A2993 RMK A01 T01810108  RH  063%=      5-min Rain = 0
KREE 160715Z 04010KT 18/11 A2993 RMK A01 T01820107  RH  063%=      5-min Rain = 0
KREE 160720Z 04009KT 18/11 A2993 RMK A01 T01800107  RH  063%=      5-min Rain = 0
KREE 160725Z 04007KT 18/11 A2993 RMK A01 T01770108  RH  065%=      5-min Rain = 0
KREE 160730Z 05008KT 18/11 A2992 RMK A01 T01770108  RH  065%=      5-min Rain = 0
KREE 160735Z 06009KT 18/11 A2992 RMK A01 T01770108  RH  065%=      5-min Rain = 0
KREE 160740Z 06008KT 18/11 A2992 RMK A01 T01780108  RH  064%=      5-min Rain = 0
KREE 160745Z 05008KT 18/11 A2993 RMK A01 T01790107  RH  064%=      5-min Rain = 0
KREE 160750Z 07007KT 18/11 A2992 RMK A01 T01770107  RH  065%=      5-min Rain = 0
KREE 160755Z 08010KT 18/11 A2992 RMK A01 T01770106  RH  064%=      5-min Rain = 0
KREE 160800Z 08011KT 18/11 A2992 RMK A01 T01830106  RH  062%=      5-min Rain = 0
KREE 160805Z 08011KT 19/11 A2992 RMK A01 T01860106  RH  061%=      5-min Rain = 0
KREE 160810Z 07011KT 19/11 A2993 RMK A01 T01860106  RH  061%=      5-min Rain = 0
KREE 160815Z 08010KT 19/11 A2993 RMK A01 T01860106  RH  061%=      5-min Rain = 0
KREE 160820Z 09010KT 19/11 A2992 RMK A01 T01850106  RH  061%=      5-min Rain = 0
KREE 160825Z 09010KT 19/11 A2992 RMK A01 T01850106  RH  061%=      5-min Rain = 0
KREE 160830Z 09010KT 19/11 A2992 RMK A01 T01850106  RH  061%=      5-min Rain = 0
KREE 160835Z 09010KT 19/11 A2992 RMK A01 T01870106  RH  060%=      5-min Rain = 0
KREE 160840Z 09011KT 19/11 A2992 RMK A01 T01880105  RH  060%=      5-min Rain = 0
KREE 160845Z 09010KT 19/11 A2993 RMK A01 T01890105  RH  059%=      5-min Rain = 0
KREE 160850Z 08010KT 19/11 A2993 RMK A01 T01890106  RH  060%=      5-min Rain = 0
KREE 160855Z 09010KT 19/11 A2993 RMK A01 T01890106  RH  060%=      5-min Rain = 0
KREE 160900Z 09012KT 19/11 A2993 RMK A01 T01890107  RH  060%=      5-min Rain = 0
KREE 160905Z 09013KT 19/11 A2993 RMK A01 T01900108  RH  060%=      5-min Rain = 0
KREE 160910Z 09014KT 19/11 A2993 RMK A01 T01910107  RH  059%=      5-min Rain = 0
KREE 160915Z 09013KT 19/11 A2993 RMK A01 T01890107  RH  060%=      5-min Rain = 0
KREE 160920Z 09012KT 19/11 A2993 RMK A01 T01890107  RH  060%=      5-min Rain = 0
KREE 160925Z 09013KT 19/11 A2993 RMK A01 T01880107  RH  060%=      5-min Rain = 0
KREE 160930Z 09014KT 19/11 A2993 RMK A01 T01880106  RH  060%=      5-min Rain = 0
KREE 160935Z 09014G19KT 19/11 A2994 RMK A01 T01870105  RH  060%=      5-min Rain = 0
KREE 160940Z 07012KT 19/11 A2994 RMK A01 T01860105  RH  060%=      5-min Rain = 0
KREE 160945Z 07013KT 19/10 A2994 RMK A01 T01870104  RH  059%=      5-min Rain = 0
KREE 160950Z 07012KT 19/10 A2995 RMK A01 T01870103  RH  059%=      5-min Rain = 0
KREE 160955Z 07011KT 19/10 A2995 RMK A01 T01860104  RH  060%=      5-min Rain = 0
KREE 161000Z 06011KT 19/11 A2995 RMK A01 T01850105  RH  061%=      5-min Rain = 0
KREE 161005Z 06011KT 18/11 A2995 RMK A01 T01840105  RH  061%=      5-min Rain = 0
KREE 161010Z 07009KT 18/11 A2995 RMK A01 T01810105  RH  062%=      5-min Rain = 0
KREE 161015Z 06009KT 18/11 A2995 RMK A01 T01800105  RH  063%=      5-min Rain = 0
KREE 161020Z 07009KT 18/11 A2995 RMK A01 T01800105  RH  062%=      5-min Rain = 0
KREE 161025Z 07008KT 18/11 A2995 RMK A01 T01780105  RH  063%=      5-min Rain = 0
KREE 161030Z 07008KT 18/11 A2994 RMK A01 T01780105  RH  063%=      5-min Rain = 0
KREE 161035Z 07008KT 18/10 A2994 RMK A01 T01780104  RH  063%=      5-min Rain = 0
KREE 161040Z 06008KT 18/10 A2994 RMK A01 T01780104  RH  063%=      5-min Rain = 0
KREE 161045Z 07008KT 18/10 A2994 RMK A01 T01750104  RH  064%=      5-min Rain = 0
KREE 161050Z 06007KT 17/10 A2994 RMK A01 T01730104  RH  065%=      5-min Rain = 0
KREE 161055Z 06008KT 17/10 A2994 RMK A01 T01730104  RH  065%=      5-min Rain = 0
KREE 161100Z 07008KT 17/11 A2994 RMK A01 T01700105  RH  066%=      5-min Rain = 0
KREE 161105Z 09005KT 17/11 A2994 RMK A01 T01690105  RH  067%=      5-min Rain = 0
KREE 161110Z 11002KT 17/11 A2994 RMK A01 T01650106  RH  069%=      5-min Rain = 0
KREE 161115Z 07003KT 16/11 A2994 RMK A01 T01640106  RH  069%=      5-min Rain = 0
KREE 161120Z 05005KT 17/11 A2995 RMK A01 T01690105  RH  067%=      5-min Rain = 0
KREE 161125Z 03005KT 17/11 A2995 RMK A01 T01670105  RH  068%=      5-min Rain = 0
KREE 161130Z 00005KT 16/11 A2995 RMK A01 T01600106  RH  071%=      5-min Rain = 0
KREE 161135Z 04007KT 16/11 A2995 RMK A01 T01580106  RH  072%=      5-min Rain = 0
KREE 161140Z 04007KT 16/11 A2995 RMK A01 T01630106  RH  070%=      5-min Rain = 0
KREE 161145Z 06005KT 16/11 A2995 RMK A01 T01610106  RH  071%=      5-min Rain = 0
KREE 161150Z 05004KT 16/11 A2995 RMK A01 T01580107  RH  073%=      5-min Rain = 0
KREE 161155Z 06004KT 16/11 A2995 RMK A01 T01570107  RH  073%=      5-min Rain = 0
KREE 161200Z 10005KT 16/11 A2995 RMK A01 T01570108  RH  074%=      5-min Rain = 0
KREE 161205Z 11007KT 16/11 A2994 RMK A01 T01590109  RH  074%=      5-min Rain = 0
KREE 161210Z 09007KT 16/11 A2994 RMK A01 T01630110  RH  072%=      5-min Rain = 0
KREE 161215Z 09006KT 17/11 A2994 RMK A01 T01650110  RH  071%=      5-min Rain = 0
KREE 161220Z 11008KT 17/11 A2994 RMK A01 T01660112  RH  072%=      5-min Rain = 0
KREE 161225Z 08008KT 17/11 A2994 RMK A01 T01700112  RH  070%=      5-min Rain = 0
KREE 161230Z 07006KT 17/11 A2995 RMK A01 T01740112  RH  068%=      5-min Rain = 0
KREE 161235Z 08006KT 18/11 A2995 RMK A01 T01760113  RH  068%=      5-min Rain = 0
KREE 161240Z 09005KT 18/11 A2996 RMK A01 T01780114  RH  067%=      5-min Rain = 0
KREE 161245Z 07005KT 18/12 A2996 RMK A01 T01810115  RH  066%=      5-min Rain = 0
KREE 161250Z 06006KT 18/11 A2996 RMK A01 T01830114  RH  065%=      5-min Rain = 0
KREE 161255Z 06006KT 18/11 A2996 RMK A01 T01840114  RH  065%=      5-min Rain = 0
KREE 161300Z 05006KT 19/12 A2997 RMK A01 T01850115  RH  065%=      5-min Rain = 0
KREE 161305Z 05007KT 19/12 A2997 RMK A01 T01860115  RH  065%=      5-min Rain = 0
KREE 161310Z 06007KT 19/12 A2997 RMK A01 T01870115  RH  064%=      5-min Rain = 0
KREE 161315Z 05009KT 19/11 A2997 RMK A01 T01870113  RH  063%=      5-min Rain = 0
KREE 161320Z 05008KT 19/11 A2998 RMK A01 T01870113  RH  063%=      5-min Rain = 0
KREE 161325Z 04007KT 19/11 A2998 RMK A01 T01870113  RH  063%=      5-min Rain = 0
KREE 161330Z 04006KT 19/11 A2999 RMK A01 T01880113  RH  063%=      5-min Rain = 0
KREE 161335Z 03006KT 19/12 A2999 RMK A01 T01890116  RH  064%=      5-min Rain = 0
KREE 161340Z 03006KT 19/12 A2999 RMK A01 T01900117  RH  064%=      5-min Rain = 0
KREE 161345Z 03006KT 19/12 A2999 RMK A01 T01900117  RH  064%=      5-min Rain = 0
KREE 161350Z 04006KT 19/12 A2999 RMK A01 T01920116  RH  063%=      5-min Rain = 0
KREE 161355Z 04006KT 19/11 A2999 RMK A01 T01920114  RH  062%=      5-min Rain = 0
KREE 161400Z 04005KT 19/12 A2999 RMK A01 T01930117  RH  062%=      5-min Rain = 0
KREE 161405Z 04005KT 20/12 A30 RMK A01 T01950117  RH  062%=      5-min Rain = 0
KREE 161410Z 03005KT 20/12 A30 RMK A01 T01960118  RH  062%=      5-min Rain = 0
KREE 161415Z 02007KT 20/12 A30 RMK A01 T01980119  RH  061%=      5-min Rain = 0
KREE 161420Z 02008KT 20/12 A30 RMK A01 T01980119  RH  061%=      5-min Rain = 0
KREE 161425Z 01009KT 20/12 A30 RMK A01 T02000119  RH  061%=      5-min Rain = 0
KREE 161430Z 01008KT 20/12 A30 RMK A01 T02010121  RH  061%=      5-min Rain = 0
KREE 161435Z 01008KT 20/12 A30 RMK A01 T02020122  RH  061%=      5-min Rain = 0
KREE 161440Z 02009KT 20/12 A30 RMK A01 T02010121  RH  061%=      5-min Rain = 0
KREE 161445Z 02008KT 20/12 A30 RMK A01 T02010122  RH  061%=      5-min Rain = 0
KREE 161450Z 02007KT 20/12 A30 RMK A01 T02030124  RH  061%=      5-min Rain = 0
KREE 161455Z 02009KT 21/12 A3001 RMK A01 T02050123  RH  060%=      5-min Rain = 0
KREE 161500Z 01010KT 21/12 A3001 RMK A01 T02060123  RH  060%=      5-min Rain = 0
KREE 161505Z 02009KT 21/12 A3001 RMK A01 T02070124  RH  060%=      5-min Rain = 0
KREE 161510Z 01009KT 21/12 A3001 RMK A01 T02080122  RH  059%=      5-min Rain = 0
KREE 161515Z 02011KT 21/12 A3001 RMK A01 T02090120  RH  058%=      5-min Rain = 0
KREE 161520Z 02010KT 21/12 A3001 RMK A01 T02100121  RH  058%=      5-min Rain = 0
KREE 161525Z 02010G15KT 21/12 A3001 RMK A01 T02120122  RH  058%=      5-min Rain = 0
KREE 161530Z 03013KT 21/12 A3001 RMK A01 T02100121  RH  058%=      5-min Rain = 0
KREE 161535Z 03011KT 21/12 A3001 RMK A01 T02100121  RH  058%=      5-min Rain = 0
KREE 161540Z 03011KT 21/12 A3001 RMK A01 T02110122  RH  058%=      5-min Rain = 0
KREE 161545Z 03012KT 21/12 A3001 RMK A01 T02130123  RH  058%=      5-min Rain = 0
KREE 161550Z 03012KT 21/12 A30 RMK A01 T02130120  RH  056%=      5-min Rain = 0
KREE 161555Z 03012KT 22/13 A30 RMK A01 T02160125  RH  057%=      5-min Rain = 0
KREE 161600Z 04012KT 22/12 A30 RMK A01 T02150123  RH  057%=      5-min Rain = 0
KREE 161605Z 04013KT 22/12 A30 RMK A01 T02180121  RH  055%=      5-min Rain = 0
KREE 161610Z 05013G18KT 22/12 A30 RMK A01 T02180116  RH  053%=      5-min Rain = 0
KREE 161615Z 05012KT 22/12 A30 RMK A01 T02210118  RH  053%=      5-min Rain = 0
KREE 161620Z 05012G17KT 22/12 A30 RMK A01 T02230118  RH  052%=      5-min Rain = 0
KREE 161625Z 04012KT 22/12 A30 RMK A01 T02220118  RH  053%=      5-min Rain = 0
KREE 161630Z 04012KT 23/12 A30 RMK A01 T02250119  RH  052%=      5-min Rain = 0
KREE 161635Z 03012G17KT 23/12 A30 RMK A01 T02260120  RH  052%=      5-min Rain = 0
KREE 161640Z 04012G17KT 23/12 A30 RMK A01 T02270118  RH  051%=      5-min Rain = 0
KREE 161645Z 05011KT 23/12 A30 RMK A01 T02280119  RH  051%=      5-min Rain = 0
KREE 161650Z 04011KT 23/12 A3001 RMK A01 T02270116  RH  051%=      5-min Rain = 0
KREE 161655Z 04013KT 23/12 A30 RMK A01 T02270117  RH  051%=      5-min Rain = 0
KREE 161700Z 05013KT 23/12 A30 RMK A01 T02290119  RH  051%=      5-min Rain = 0
KREE 161705Z 04012KT 23/12 A3001 RMK A01 T02300119  RH  050%=      5-min Rain = 0
KREE 161710Z 05013KT 23/12 A30 RMK A01 T02320121  RH  051%=      5-min Rain = 0
KREE 161715Z 05012KT 23/12 A30 RMK A01 T02310120  RH  050%=      5-min Rain = 0
KREE 161720Z 04012KT 23/12 A30 RMK A01 T02280120  RH  051%=      5-min Rain = 0
KREE 161725Z 05012KT 23/12 A30 RMK A01 T02280121  RH  052%=      5-min Rain = 0
KREE 161730Z 06011G16KT 24/12 A30 RMK A01 T02350123  RH  050%=      5-min Rain = 0
KREE 161735Z 06011G16KT 25/12 A30 RMK A01 T02460124  RH  048%=      5-min Rain = 0
KREE 161740Z 06011G16KT 25/12 A30 RMK A01 T02470119  RH  046%=      5-min Rain = 0
KREE 161745Z 04010G15KT 25/12 A30 RMK A01 T02520120  RH  045%=      5-min Rain = 0
KREE 161750Z 03011G17KT 25/12 A30 RMK A01 T02480122  RH  046%=      5-min Rain = 0
KREE 161755Z 04011G16KT 25/12 A30 RMK A01 T02490123  RH  046%=      5-min Rain = 0
KREE 161800Z 04013KT 25/12 A30 RMK A01 T02480122  RH  046%=      5-min Rain = 0
KREE 161805Z 05009KT 25/12 A30 RMK A01 T02480124  RH  047%=      5-min Rain = 0
KREE 161810Z 06011G16KT 26/12 A30 RMK A01 T02550122  RH  044%=      5-min Rain = 0
KREE 161815Z 04008G13KT 26/12 A30 RMK A01 T02550121  RH  044%=      5-min Rain = 0
KREE 161820Z 05008G14KT 26/13 A2999 RMK A01 T02570127  RH  045%=      5-min Rain = 0
KREE 161825Z 06011KT 26/12 A2999 RMK A01 T02570124  RH  044%=      5-min Rain = 0
KREE 161830Z 05010G15KT 26/12 A2999 RMK A01 T02560122  RH  044%=      5-min Rain = 0
KREE 161835Z 06009G14KT 26/13 A2999 RMK A01 T02600125  RH  044%=      5-min Rain = 0
KREE 161840Z 07009G14KT 26/12 A2999 RMK A01 T02600124  RH  044%=      5-min Rain = 0
KREE 161845Z 08009KT 26/12 A2999 RMK A01 T02590124  RH  044%=      5-min Rain = 0
KREE 161850Z 08009KT 26/13 A2999 RMK A01 T02590125  RH  044%=      5-min Rain = 0
KREE 161855Z 06009KT 27/13 A2998 RMK A01 T02650129  RH  044%=      5-min Rain = 0
KREE 161900Z 04009KT 27/12 A2998 RMK A01 T02660124  RH  042%=      5-min Rain = 0
KREE 161905Z 07009KT 27/13 A2998 RMK A01 T02660126  RH  043%=      5-min Rain = 0
KREE 161910Z 06006KT 26/12 A2998 RMK A01 T02640122  RH  042%=      5-min Rain = 0
KREE 161915Z 08006G11KT 27/12 A2998 RMK A01 T02660120  RH  041%=      5-min Rain = 0
KREE 161920Z 05008KT 27/12 A2998 RMK A01 T02700115  RH  039%=      5-min Rain = 0
KREE 161925Z 05007KT 27/12 A2997 RMK A01 T02700115  RH  039%=      5-min Rain = 0
KREE 161930Z 04007KT 27/12 A2997 RMK A01 T02720118  RH  039%=      5-min Rain = 0
KREE 161935Z 08005G11KT 27/12 A2997 RMK A01 T02740120  RH  039%=      5-min Rain = 0
KREE 161940Z 09006KT 27/12 A2997 RMK A01 T02730120  RH  039%=      5-min Rain = 0
KREE 161945Z 10007KT 27/12 A2997 RMK A01 T02720117  RH  039%=      5-min Rain = 0
KREE 161950Z 09007KT 27/12 A2997 RMK A01 T02740119  RH  039%=      5-min Rain = 0
KREE 161955Z 09006KT 28/12 A2996 RMK A01 T02760115  RH  037%=      5-min Rain = 0
KREE 162000Z 11007KT 28/12 A2996 RMK A01 T02770116  RH  037%=      5-min Rain = 0
KREE 162005Z 08006G13KT 28/12 A2996 RMK A01 T02780118  RH  038%=      5-min Rain = 0
KREE 162010Z 03003KT 28/11 A2996 RMK A01 T02790112  RH  036%=      5-min Rain = 0
KREE 162015Z 05007KT 28/12 A2996 RMK A01 T02820115  RH  036%=      5-min Rain = 0
KREE 162020Z 00006KT 28/12 A2996 RMK A01 T02830118  RH  036%=      5-min Rain = 0
KREE 162025Z 02005KT 29/12 A2996 RMK A01 T02850117  RH  036%=      5-min Rain = 0
KREE 162030Z 01004KT 28/11 A2995 RMK A01 T02810113  RH  036%=      5-min Rain = 0
KREE 162035Z 04002KT 28/12 A2995 RMK A01 T02840115  RH  036%=      5-min Rain = 0
KREE 162040Z 11005G10KT 28/12 A2995 RMK A01 T02830115  RH  036%=      5-min Rain = 0
KREE 162045Z 14005KT 28/11 A2995 RMK A01 T02820114  RH  036%=      5-min Rain = 0
KREE 162050Z 14005KT 28/12 A2995 RMK A01 T02830115  RH  036%=      5-min Rain = 0
KREE 162055Z 18005KT 29/12 A2995 RMK A01 T02860117  RH  036%=      5-min Rain = 0
KREE 162100Z 18002KT 29/12 A2994 RMK A01 T02870116  RH  035%=      5-min Rain = 0
KREE 162105Z 10006KT 28/12 A2995 RMK A01 T02830120  RH  037%=      5-min Rain = 0
KREE 162110Z 13006KT 28/12 A2995 RMK A01 T02790117  RH  037%=      5-min Rain = 0
KREE 162115Z 14003KT 28/11 A2995 RMK A01 T02800113  RH  036%=      5-min Rain = 0
KREE 162120Z 09002KT 28/11 A2995 RMK A01 T02810113  RH  036%=      5-min Rain = 0
KREE 162125Z 05006G11KT 28/12 A2994 RMK A01 T02840117  RH  036%=      5-min Rain = 0
KREE 162130Z 03005KT 29/12 A2994 RMK A01 T02860118  RH  036%=      5-min Rain = 0
KREE 162135Z 05003KT 29/12 A2994 RMK A01 T02890119  RH  035%=      5-min Rain = 0
KREE 162140Z 09003KT 29/12 A2994 RMK A01 T02930121  RH  035%=      5-min Rain = 0
KREE 162145Z 06004KT 29/12 A2994 RMK A01 T02920120  RH  035%=      5-min Rain = 0
KREE 162150Z 11004KT 29/12 A2994 RMK A01 T02890118  RH  035%=      5-min Rain = 0
KREE 162155Z 07004G9KT 29/12 A2994 RMK A01 T02850117  RH  036%=      5-min Rain = 0
KREE 162200Z 06002G10KT 29/11 A2994 RMK A01 T02850113  RH  035%=      5-min Rain = 0
KREE 162205Z 06008KT 28/12 A2994 RMK A01 T02830120  RH  037%=      5-min Rain = 0
KREE 162210Z 07006KT 28/12 A2993 RMK A01 T02810116  RH  037%=      5-min Rain = 0
KREE 162215Z 09006KT 28/12 A2993 RMK A01 T02760118  RH  038%=      5-min Rain = 0
KREE 162220Z 10004G9KT 28/12 A2993 RMK A01 T02760119  RH  038%=      5-min Rain = 0
KREE 162225Z 08005KT 28/12 A2993 RMK A01 T02770117  RH  038%=      5-min Rain = 0
KREE 162230Z 05005KT 28/12 A2993 RMK A01 T02790119  RH  038%=      5-min Rain = 0
KREE 162235Z 07004KT 28/12 A2993 RMK A01 T02800122  RH  038%=      5-min Rain = 0
KREE 162240Z 05005G10KT 28/12 A2993 RMK A01 T02810116  RH  037%=      5-min Rain = 0
KREE 162245Z 03006KT 28/12 A2993 RMK A01 T02820116  RH  036%=      5-min Rain = 0
KREE 162250Z 04005KT 28/11 A2993 RMK A01 T02830113  RH  035%=      5-min Rain = 0
KREE 162255Z 03003KT 28/11 A2993 RMK A01 T02840114  RH  035%=      5-min Rain = 0
KREE 162300Z 02005KT 28/12 A2993 RMK A01 T02820117  RH  036%=      5-min Rain = 0
KREE 162305Z 05004KT 28/12 A2992 RMK A01 T02810118  RH  037%=      5-min Rain = 0
KREE 162310Z 05006KT 28/12 A2992 RMK A01 T02810117  RH  037%=      5-min Rain = 0
KREE 162315Z 02006KT 28/12 A2992 RMK A01 T02820124  RH  038%=      5-min Rain = 0
KREE 162320Z 03005KT 29/12 A2992 RMK A01 T02850123  RH  037%=      5-min Rain = 0
KREE 162325Z 04006KT 29/12 A2992 RMK A01 T02870120  RH  036%=      5-min Rain = 0
KREE 162330Z 02005KT 29/12 A2992 RMK A01 T02880118  RH  036%=      5-min Rain = 0
KREE 162335Z 02005KT 29/12 A2992 RMK A01 T02890117  RH  035%=      5-min Rain = 0
KREE 162340Z 01004KT 29/12 A2992 RMK A01 T02890116  RH  035%=      5-min Rain = 0
KREE 162345Z 00005KT 29/12 A2991 RMK A01 T02910119  RH  035%=      5-min Rain = 0
KREE 162350Z 01006KT 29/12 A2991 RMK A01 T02890116  RH  035%=      5-min Rain = 0
KREE 162355Z 36003KT 29/11 A2991 RMK A01 T02870111  RH  034%=      5-min Rain = 0
KREE 170000Z 01005KT 29/12 A2991 RMK A01 T02890115  RH  035%=      5-min Rain = 0
KREE 170005Z 05005KT 29/12 A2992 RMK A01 T02870117  RH  035%=      5-min Rain = 0
KREE 170010Z 09006KT 28/12 A2992 RMK A01 T02820120  RH  037%=      5-min Rain = 0
KREE 170015Z 10004KT 28/12 A2992 RMK A01 T02810117  RH  037%=      5-min Rain = 0
KREE 170020Z 09005KT 28/11 A2992 RMK A01 T02800112  RH  036%=      5-min Rain = 0
KREE 170025Z 10003KT 28/11 A2992 RMK A01 T02800110  RH  035%=      5-min Rain = 0
KREE 170030Z 09002KT 28/11 A2992 RMK A01 T02820111  RH  035%=      5-min Rain = 0
KREE 170035Z 06006KT 28/12 A2993 RMK A01 T02820119  RH  037%=      5-min Rain = 0
KREE 170040Z 08008KT 28/13 A2993 RMK A01 T02760129  RH  041%=      5-min Rain = 0
KREE 170045Z 08007KT 27/13 A2993 RMK A01 T02740128  RH  041%=      5-min Rain = 0
KREE 170050Z 07006KT 27/13 A2993 RMK A01 T02740127  RH  041%=      5-min Rain = 0
KREE 170055Z 07007KT 27/13 A2993 RMK A01 T02730128  RH  042%=      5-min Rain = 0
KREE 170100Z 07007KT 27/13 A2993 RMK A01 T02710129  RH  042%=      5-min Rain = 0
KREE 170105Z 07008KT 27/13 A2993 RMK A01 T02690130  RH  043%=      5-min Rain = 0
KREE 170110Z 07008KT 27/13 A2993 RMK A01 T02660131  RH  044%=      5-min Rain = 0
KREE 170115Z 07008KT 27/13 A2994 RMK A01 T02660130  RH  044%=      5-min Rain = 0
KREE 170120Z 06008KT 27/13 A2994 RMK A01 T02650131  RH  044%=      5-min Rain = 0
KREE 170125Z 06010KT 26/13 A2994 RMK A01 T02620132  RH  046%=      5-min Rain = 0
KREE 170130Z 06010KT 26/13 A2994 RMK A01 T02590132  RH  046%=      5-min Rain = 0
KREE 170135Z 05009KT 26/13 A2994 RMK A01 T02570132  RH  047%=      5-min Rain = 0
KREE 170140Z 06008KT 26/13 A2994 RMK A01 T02550132  RH  047%=      5-min Rain = 0
KREE 170145Z 06007KT 25/13 A2994 RMK A01 T02510133  RH  049%=      5-min Rain = 0
KREE 170150Z 06007KT 25/13 A2995 RMK A01 T02470133  RH  050%=      5-min Rain = 0
KREE 170155Z 06007KT 24/13 A2995 RMK A01 T02440133  RH  051%=      5-min Rain = 0
KREE 170200Z 05006KT 24/13 A2995 RMK A01 T02410133  RH  052%=      5-min Rain = 0
KREE 170205Z 06006KT 24/13 A2995 RMK A01 T02360133  RH  053%=      5-min Rain = 0
KREE 170210Z 06006KT 23/13 A2995 RMK A01 T02340133  RH  054%=      5-min Rain = 0
KREE 170215Z 06006KT 23/13 A2995 RMK A01 T02300133  RH  055%=      5-min Rain = 0
KREE 170220Z 07007KT 23/13 A2995 RMK A01 T02260133  RH  057%=      5-min Rain = 0
KREE 170225Z 07008KT 22/13 A2995 RMK A01 T02240133  RH  057%=      5-min Rain = 0
KREE 170230Z 07008KT 22/13 A2995 RMK A01 T02240132  RH  057%=      5-min Rain = 0
KREE 170235Z 07008KT 23/13 A2995 RMK A01 T02250132  RH  057%=      5-min Rain = 0
KREE 170240Z 07008KT 22/13 A2995 RMK A01 T02240133  RH  057%=      5-min Rain = 0
KREE 170245Z 07009KT 23/13 A2995 RMK A01 T02270132  RH  056%=      5-min Rain = 0
KREE 170250Z 07009KT 23/13 A2995 RMK A01 T02260131  RH  056%=      5-min Rain = 0
KREE 170255Z 07008KT 23/13 A2995 RMK A01 T02250130  RH  056%=      5-min Rain = 0
KREE 170300Z 08008KT 22/13 A2995 RMK A01 T02240128  RH  056%=      5-min Rain = 0
KREE 170305Z 08008KT 22/13 A2996 RMK A01 T02210127  RH  057%=      5-min Rain = 0
KREE 170310Z 08007KT 22/13 A2996 RMK A01 T02170128  RH  058%=      5-min Rain = 0
KREE 170315Z 08007KT 21/13 A2996 RMK A01 T02130129  RH  060%=      5-min Rain = 0
KREE 170320Z 08007KT 21/13 A2997 RMK A01 T02120128  RH  060%=      5-min Rain = 0
KREE 170325Z 07007KT 21/13 A2997 RMK A01 T02120127  RH  059%=      5-min Rain = 0
KREE 170330Z 07007KT 22/13 A2998 RMK A01 T02150125  RH  058%=      5-min Rain = 0
KREE 170335Z 07008KT 22/13 A2998 RMK A01 T02150125  RH  058%=      5-min Rain = 0
KREE 170340Z 07008KT 22/13 A2998 RMK A01 T02150128  RH  058%=      5-min Rain = 0
KREE 170345Z 08009KT 22/13 A2998 RMK A01 T02160131  RH  060%=      5-min Rain = 0
KREE 170350Z 08010KT 22/14 A2999 RMK A01 T02160135  RH  061%=      5-min Rain = 0
KREE 170355Z 09009KT 21/14 A2999 RMK A01 T02140137  RH  063%=      5-min Rain = 0
KREE 170400Z 09009KT 21/14 A2999 RMK A01 T02130139  RH  064%=      5-min Rain = 0
KREE 170405Z 09011KT 22/14 A2999 RMK A01 T02150142  RH  064%=      5-min Rain = 0
KREE 170410Z 09012KT 22/14 A2999 RMK A01 T02160142  RH  064%=      5-min Rain = 0
KREE 170415Z 09010KT 22/14 A30 RMK A01 T02150141  RH  064%=      5-min Rain = 0
KREE 170420Z 10010KT 22/14 A30 RMK A01 T02150141  RH  064%=      5-min Rain = 0
KREE 170425Z 09009KT 21/14 A30 RMK A01 T02130141  RH  065%=      5-min Rain = 0
KREE 170430Z 08009KT 21/14 A30 RMK A01 T02100141  RH  066%=      5-min Rain = 0
KREE 170435Z 08008KT 21/14 A30 RMK A01 T02070141  RH  067%=      5-min Rain = 0
KREE 170440Z 08008KT 20/14 A30 RMK A01 T02040140  RH  068%=      5-min Rain = 0
KREE 170445Z 09008KT 21/14 A30 RMK A01 T02060140  RH  067%=      5-min Rain = 0
KREE 170450Z 09008KT 21/14 A30 RMK A01 T02080140  RH  067%=      5-min Rain = 0
KREE 170455Z 10009KT 21/14 A30 RMK A01 T02070140  RH  067%=      5-min Rain = 0

Page generated in 0.0093 seconds.